createdAt,value
2023-01-05T00:00:56.188Z,87.58
2023-01-05T00:01:56.188Z,86.91
2023-01-05T00:02:56.164Z,86.81
2023-01-05T00:03:56.541Z,87.58
2023-01-05T00:04:56.209Z,87.29
2023-01-05T00:05:56.231Z,87.49
2023-01-05T00:06:56.259Z,87.96
2023-01-05T00:07:56.317Z,87.39
2023-01-05T00:08:56.440Z,87.01
2023-01-05T00:10:56.874Z,86.81
2023-01-05T00:11:56.800Z,86.91
2023-01-05T00:12:56.682Z,86.91
2023-01-05T00:13:56.584Z,86.91
2023-01-05T00:14:56.641Z,87.49
2023-01-05T00:15:56.568Z,87.58
2023-01-05T00:16:56.833Z,87.77
2023-01-05T00:17:56.669Z,87.58
2023-01-05T00:19:56.830Z,87.77
2023-01-05T00:20:56.751Z,87.49
2023-01-05T00:21:56.831Z,87.19
2023-01-05T00:22:56.712Z,87.49
2023-01-05T00:23:57.039Z,87.68
2023-01-05T00:24:56.866Z,86.91
2023-01-05T00:27:56.907Z,87.77
2023-01-05T00:28:56.933Z,87.87
2023-01-05T00:29:57.337Z,87.68
2023-01-05T00:30:56.982Z,88.16
2023-01-05T00:31:57.058Z,87.77
2023-01-05T00:32:57.131Z,87.68
2023-01-05T00:33:57.119Z,87.96
2023-01-05T00:34:57.049Z,87.58
2023-01-05T00:35:57.425Z,87.39
2023-01-05T00:36:57.156Z,87.49
2023-01-05T00:37:57.227Z,87.49
2023-01-05T00:38:57.316Z,87.01
2023-01-05T00:39:57.292Z,87.49
2023-01-05T00:40:57.212Z,87.39
2023-01-05T00:41:57.668Z,87.19
2023-01-05T00:42:57.699Z,87.49
2023-01-05T00:43:57.636Z,87.29
2023-01-05T00:44:57.530Z,87.58
2023-01-05T00:45:57.630Z,87.29
2023-01-05T00:46:57.680Z,87.58
2023-01-05T00:47:57.420Z,87.29
2023-01-05T00:48:57.736Z,87.49
2023-01-05T00:49:58.270Z,87.39
2023-01-05T00:50:57.720Z,87.39
2023-01-05T00:51:57.863Z,87.29
2023-01-05T00:52:59.262Z,87.39
2023-01-05T00:53:57.881Z,87.39
2023-01-05T00:54:57.834Z,87.29
2023-01-05T00:55:57.950Z,87.58
2023-01-05T00:56:57.848Z,87.10
2023-01-05T00:57:57.887Z,87.01
2023-01-05T00:58:57.860Z,87.10
2023-01-05T00:59:57.854Z,87.10
2023-01-05T01:00:57.979Z,87.01
2023-01-05T01:01:58.121Z,87.01
2023-01-05T01:02:58.244Z,86.91
2023-01-05T01:03:58.077Z,87.01
2023-01-05T01:04:58.092Z,87.10
2023-01-05T01:05:58.019Z,86.43
2023-01-05T01:06:58.072Z,86.62
2023-01-05T01:07:58.179Z,86.81
2023-01-05T01:08:58.209Z,86.91
2023-01-05T01:09:58.647Z,87.10
2023-01-05T01:10:58.966Z,87.01
2023-01-05T01:11:58.154Z,87.19
2023-01-05T01:12:58.322Z,86.52
2023-01-05T01:13:58.302Z,86.33
2023-01-05T01:14:58.383Z,87.19
2023-01-05T01:15:58.296Z,86.52
2023-01-05T01:17:58.597Z,86.43
2023-01-05T01:19:01.723Z,86.91
2023-01-05T01:19:58.358Z,86.91
2023-01-05T01:20:58.395Z,86.43
2023-01-05T01:21:58.486Z,86.91
2023-01-05T01:22:58.452Z,87.29
2023-01-05T01:23:58.524Z,87.58
2023-01-05T01:24:58.883Z,87.01
2023-01-05T01:25:58.486Z,86.62
2023-01-05T01:26:58.511Z,86.33
2023-01-05T01:27:58.658Z,87.19
2023-01-05T01:28:58.578Z,87.01
2023-01-05T01:29:58.634Z,87.10
2023-01-05T01:30:58.810Z,86.43
2023-01-05T01:31:59.060Z,87.10
2023-01-05T01:32:58.679Z,86.91
2023-01-05T01:33:58.775Z,87.10
2023-01-05T01:34:59.031Z,87.01
2023-01-05T01:35:58.769Z,87.68
2023-01-05T01:36:58.789Z,87.29
2023-01-05T01:37:58.911Z,87.01
2023-01-05T01:38:59.148Z,87.01
2023-01-05T01:39:58.937Z,87.01
2023-01-05T01:40:58.906Z,86.33
2023-01-05T01:41:58.997Z,86.91
2023-01-05T01:42:58.966Z,86.91
2023-01-05T01:43:58.983Z,86.62
2023-01-05T01:44:59.026Z,86.52
2023-01-05T01:45:59.407Z,87.10
2023-01-05T01:47:59.097Z,86.68
2023-01-05T01:48:59.145Z,86.43
2023-01-05T01:49:59.175Z,86.43
2023-01-05T01:51:04.755Z,86.62
2023-01-05T01:51:59.207Z,86.29
2023-01-05T01:52:59.542Z,86.48
2023-01-05T01:53:59.274Z,86.38
2023-01-05T01:54:59.293Z,87.35
2023-01-05T01:55:59.356Z,86.52
2023-01-05T01:56:59.467Z,86.91
2023-01-05T01:57:59.381Z,86.87
2023-01-05T01:58:59.408Z,86.38
2023-01-05T01:59:59.763Z,86.43
2023-01-05T02:00:59.498Z,87.01
2023-01-05T02:01:59.637Z,87.35
2023-01-05T02:02:59.617Z,87.05
2023-01-05T02:04:59.648Z,87.15
2023-01-05T02:05:59.672Z,87.05
2023-01-05T02:06:59.879Z,87.49
2023-01-05T02:07:59.699Z,87.44
2023-01-05T02:08:59.692Z,87.29
2023-01-05T02:09:59.709Z,87.29
2023-01-05T02:10:59.748Z,87.15
2023-01-05T02:11:59.797Z,86.96
2023-01-05T02:12:59.801Z,87.01
2023-01-05T02:14:00.086Z,87.39
2023-01-05T02:14:59.855Z,87.54
2023-01-05T02:15:59.879Z,87.44
2023-01-05T02:16:59.983Z,87.35
2023-01-05T02:17:59.946Z,87.25
2023-01-05T02:18:59.969Z,87.58
2023-01-05T02:19:59.989Z,87.05
2023-01-05T02:21:00.278Z,87.10
2023-01-05T02:22:00.098Z,87.25
2023-01-05T02:23:00.103Z,86.91
2023-01-05T02:25:00.234Z,87.25
2023-01-05T02:26:00.172Z,87.29
2023-01-05T02:28:00.259Z,87.35
2023-01-05T02:29:00.550Z,87.35
2023-01-05T02:30:00.285Z,87.54
2023-01-05T02:31:00.421Z,87.15
2023-01-05T02:32:00.424Z,87.63
2023-01-05T02:33:00.460Z,87.10
2023-01-05T02:34:00.453Z,87.29
2023-01-05T02:36:00.698Z,87.54
2023-01-05T02:37:00.480Z,87.39
2023-01-05T02:39:00.634Z,87.54
2023-01-05T02:40:00.665Z,86.87
2023-01-05T02:41:00.589Z,87.25
2023-01-05T02:42:00.610Z,87.05
2023-01-05T02:43:00.958Z,86.96
2023-01-05T02:44:00.677Z,87.35
2023-01-05T02:47:00.763Z,86.58
2023-01-05T02:48:00.796Z,86.87
2023-01-05T02:49:00.813Z,86.87
2023-01-05T02:50:01.155Z,86.48
2023-01-05T02:51:00.863Z,86.77
2023-01-05T02:52:01.013Z,86.19
2023-01-05T02:53:00.919Z,86.38
2023-01-05T02:54:00.945Z,87.54
2023-01-05T02:55:01.294Z,86.87
2023-01-05T02:56:01.008Z,86.38
2023-01-05T02:57:01.333Z,87.05
2023-01-05T02:58:01.058Z,86.87
2023-01-05T02:59:01.101Z,87.25
2023-01-05T03:01:01.345Z,86.77
2023-01-05T03:02:01.301Z,87.35
2023-01-05T03:04:01.235Z,87.05
2023-01-05T03:05:01.515Z,86.29
2023-01-05T03:07:01.337Z,86.87
2023-01-05T03:08:01.334Z,87.05
2023-01-05T03:09:01.363Z,86.38
2023-01-05T03:10:01.400Z,87.35
2023-01-05T03:11:01.448Z,87.92
2023-01-05T03:12:01.766Z,87.92
2023-01-05T03:13:01.526Z,87.73
2023-01-05T03:14:01.507Z,86.87
2023-01-05T03:15:01.548Z,87.05
2023-01-05T03:16:01.623Z,86.77
2023-01-05T03:17:01.597Z,87.25
2023-01-05T03:18:01.625Z,87.25
2023-01-05T03:19:01.951Z,87.35
2023-01-05T03:20:01.679Z,86.96
2023-01-05T03:21:01.704Z,87.54
2023-01-05T03:22:01.735Z,87.25
2023-01-05T03:23:01.772Z,87.35
2023-01-05T03:24:01.789Z,87.82
2023-01-05T03:25:01.819Z,87.82
2023-01-05T03:26:02.145Z,87.05
2023-01-05T03:27:01.885Z,86.87
2023-01-05T03:28:01.899Z,87.54
2023-01-05T03:29:01.949Z,87.54
2023-01-05T03:30:01.948Z,86.87
2023-01-05T03:31:02.044Z,87.35
2023-01-05T03:32:02.029Z,86.96
2023-01-05T03:33:02.352Z,87.15
2023-01-05T03:34:02.091Z,87.63
2023-01-05T03:35:02.093Z,87.35
2023-01-05T03:36:02.162Z,87.25
2023-01-05T03:37:02.147Z,86.96
2023-01-05T03:38:02.379Z,87.44
2023-01-05T03:39:02.508Z,86.96
2023-01-05T03:40:02.232Z,87.44
2023-01-05T03:41:02.367Z,86.29
2023-01-05T03:42:02.287Z,86.77
2023-01-05T03:43:02.400Z,86.87
2023-01-05T03:44:02.340Z,87.25
2023-01-05T03:45:02.668Z,86.77
2023-01-05T03:46:02.454Z,86.87
2023-01-05T03:47:02.450Z,86.96
2023-01-05T03:48:02.461Z,87.54
2023-01-05T03:49:02.483Z,87.54
2023-01-05T03:50:02.509Z,87.73
2023-01-05T03:51:02.839Z,87.15
2023-01-05T03:52:02.565Z,87.82
2023-01-05T03:53:02.609Z,87.82
2023-01-05T03:54:02.620Z,87.63
2023-01-05T03:55:02.749Z,87.54
2023-01-05T03:56:02.685Z,87.54
2023-01-05T03:57:02.704Z,87.73
2023-01-05T03:58:03.011Z,87.73
2023-01-05T03:59:02.780Z,87.15
2023-01-05T04:00:02.794Z,87.63
2023-01-05T04:01:02.926Z,86.87
2023-01-05T04:02:02.963Z,86.96
2023-01-05T04:03:03.008Z,86.77
2023-01-05T04:04:03.059Z,86.77
2023-01-05T04:05:03.231Z,86.58
2023-01-05T04:06:02.972Z,87.44
2023-01-05T04:07:02.986Z,87.15
2023-01-05T04:08:03.016Z,86.87
2023-01-05T04:10:03.079Z,87.54
2023-01-05T04:11:03.101Z,87.25
2023-01-05T04:12:03.377Z,86.96
2023-01-05T04:13:03.153Z,87.92
2023-01-05T04:14:03.181Z,87.63
2023-01-05T04:15:03.231Z,87.54
2023-01-05T04:17:03.268Z,87.44
2023-01-05T04:18:03.301Z,87.15
2023-01-05T04:19:03.629Z,87.15
2023-01-05T04:20:03.350Z,88.02
2023-01-05T04:21:03.389Z,88.11
2023-01-05T04:22:03.453Z,87.44
2023-01-05T04:23:03.442Z,88.02
2023-01-05T04:24:03.482Z,87.73
2023-01-05T04:25:03.495Z,87.25
2023-01-05T04:26:03.828Z,87.44
2023-01-05T04:27:03.539Z,87.15
2023-01-05T04:28:03.877Z,87.35
2023-01-05T04:29:03.598Z,87.92
2023-01-05T04:30:03.641Z,87.63
2023-01-05T04:31:03.766Z,87.92
2023-01-05T04:32:03.694Z,87.05
2023-01-05T04:33:03.963Z,86.77
2023-01-05T04:35:10.607Z,87.15
2023-01-05T04:36:03.794Z,87.25
2023-01-05T04:37:03.824Z,87.44
2023-01-05T04:38:03.849Z,87.73
2023-01-05T04:39:03.881Z,87.54
2023-01-05T04:41:04.250Z,87.73
2023-01-05T04:42:03.967Z,87.35
2023-01-05T04:43:03.993Z,87.35
2023-01-05T04:44:04.019Z,88.02
2023-01-05T04:45:04.052Z,87.82
2023-01-05T04:46:04.143Z,87.92
2023-01-05T04:47:04.122Z,87.54
2023-01-05T04:48:04.403Z,86.77
2023-01-05T04:49:04.167Z,87.35
2023-01-05T04:50:04.190Z,87.54
2023-01-05T04:51:04.246Z,87.54
2023-01-05T04:52:04.247Z,87.82
2023-01-05T04:53:04.274Z,87.25
2023-01-05T04:54:04.300Z,87.82
2023-01-05T04:55:04.634Z,87.44
2023-01-05T04:56:04.356Z,87.35
2023-01-05T04:57:04.384Z,87.73
2023-01-05T04:58:06.890Z,87.82
2023-01-05T04:59:04.439Z,87.44
2023-01-05T05:00:04.564Z,88.40
2023-01-05T05:01:04.574Z,88.40
2023-01-05T05:03:05.051Z,88.40
2023-01-05T05:04:04.581Z,88.40
2023-01-05T05:05:04.606Z,88.49
2023-01-05T05:06:04.800Z,88.11
2023-01-05T05:07:04.688Z,88.02
2023-01-05T05:08:04.691Z,88.11
2023-01-05T05:11:05.019Z,87.82
2023-01-05T05:12:04.800Z,88.49
2023-01-05T05:13:04.836Z,87.92
2023-01-05T05:14:04.860Z,87.92
2023-01-05T05:15:04.885Z,88.02
2023-01-05T05:16:05.063Z,88.49
2023-01-05T05:17:04.963Z,88.49
2023-01-05T05:18:09.126Z,88.98
2023-01-05T05:19:05.034Z,88.59
2023-01-05T05:20:05.023Z,88.69
2023-01-05T05:21:05.050Z,88.88
2023-01-05T05:22:05.097Z,88.79
2023-01-05T05:23:05.104Z,88.79
2023-01-05T05:24:05.157Z,88.69
2023-01-05T05:25:05.467Z,88.31
2023-01-05T05:26:05.191Z,88.11
2023-01-05T05:27:05.212Z,87.82
2023-01-05T05:28:05.246Z,88.59
2023-01-05T05:29:05.335Z,87.92
2023-01-05T05:30:05.382Z,88.02
2023-01-05T05:31:05.451Z,88.59
2023-01-05T05:32:05.666Z,87.82
2023-01-05T05:33:05.409Z,88.59
2023-01-05T05:34:05.451Z,88.40
2023-01-05T05:35:05.917Z,87.92
2023-01-05T05:36:05.465Z,87.63
2023-01-05T05:38:05.533Z,88.02
2023-01-05T05:39:05.874Z,88.79
2023-01-05T05:40:05.694Z,88.40
2023-01-05T05:41:05.605Z,88.69
2023-01-05T05:42:05.641Z,88.40
2023-01-05T05:44:05.695Z,88.40
2023-01-05T05:45:05.755Z,88.31
2023-01-05T05:46:06.164Z,88.31
2023-01-05T05:47:05.877Z,88.21
2023-01-05T05:48:05.803Z,87.92
2023-01-05T05:49:05.845Z,88.11
2023-01-05T05:50:05.877Z,87.92
2023-01-05T05:51:05.977Z,88.69
2023-01-05T05:52:05.922Z,87.82
2023-01-05T05:53:06.262Z,87.92
2023-01-05T05:55:06.050Z,87.63
2023-01-05T05:56:06.055Z,87.82
2023-01-05T05:57:06.067Z,87.92
2023-01-05T05:58:06.091Z,87.92
2023-01-05T06:00:06.141Z,88.31
2023-01-05T06:01:06.481Z,88.40
2023-01-05T06:02:06.510Z,88.31
2023-01-05T06:03:06.582Z,88.31
2023-01-05T06:04:06.402Z,88.31
2023-01-05T06:05:07.053Z,87.82
2023-01-05T06:06:06.317Z,87.73
2023-01-05T06:07:06.357Z,88.59
2023-01-05T06:08:06.375Z,88.31
2023-01-05T06:09:06.407Z,88.69
2023-01-05T06:10:06.434Z,88.31
2023-01-05T06:11:06.464Z,88.79
2023-01-05T06:12:06.473Z,88.69
2023-01-05T06:13:06.505Z,88.88
2023-01-05T06:15:06.861Z,88.40
2023-01-05T06:16:06.620Z,88.31
2023-01-05T06:17:06.617Z,88.88
2023-01-05T06:18:06.747Z,88.59
2023-01-05T06:19:06.683Z,88.69
2023-01-05T06:20:06.712Z,88.02
2023-01-05T06:21:06.728Z,88.49
2023-01-05T06:22:06.757Z,88.49
2023-01-05T06:23:06.798Z,88.31
2023-01-05T06:24:06.811Z,88.59
2023-01-05T06:25:06.955Z,88.49
2023-01-05T06:26:06.863Z,88.98
2023-01-05T06:27:07.023Z,88.88
2023-01-05T06:28:07.219Z,88.69
2023-01-05T06:29:06.957Z,88.31
2023-01-05T06:30:06.988Z,88.31
2023-01-05T06:31:07.046Z,88.69
2023-01-05T06:32:07.033Z,88.21
2023-01-05T06:35:07.112Z,88.31
2023-01-05T06:36:07.647Z,87.82
2023-01-05T06:37:07.170Z,87.92
2023-01-05T06:38:07.317Z,88.21
2023-01-05T06:39:07.241Z,87.82
2023-01-05T06:40:07.253Z,88.11
2023-01-05T06:41:07.285Z,88.07
2023-01-05T06:42:07.312Z,87.82
2023-01-05T06:43:07.594Z,87.82
2023-01-05T06:44:07.360Z,88.31
2023-01-05T06:45:07.490Z,88.40
2023-01-05T06:46:07.474Z,88.49
2023-01-05T06:47:07.450Z,88.69
2023-01-05T06:49:07.817Z,87.92
2023-01-05T06:50:07.568Z,88.11
2023-01-05T06:51:07.569Z,88.02
2023-01-05T06:53:07.618Z,88.40
2023-01-05T06:54:07.661Z,88.11
2023-01-05T06:55:07.694Z,88.49
2023-01-05T06:56:07.701Z,88.59
2023-01-05T06:57:07.729Z,88.59
2023-01-05T06:58:07.752Z,88.40
2023-01-05T06:59:07.781Z,88.59
2023-01-05T07:00:07.807Z,87.88
2023-01-05T07:01:07.974Z,88.11
2023-01-05T07:02:08.211Z,88.07
2023-01-05T07:03:07.888Z,88.45
2023-01-05T07:04:08.016Z,88.59
2023-01-05T07:05:07.948Z,88.55
2023-01-05T07:06:14.417Z,88.45
2023-01-05T07:07:08.013Z,88.69
2023-01-05T07:08:08.334Z,88.49
2023-01-05T07:11:08.129Z,87.82
2023-01-05T07:12:08.213Z,88.49
2023-01-05T07:14:08.202Z,88.26
2023-01-05T07:16:08.374Z,88.69
2023-01-05T07:18:08.312Z,88.21
2023-01-05T07:19:08.347Z,88.49
2023-01-05T07:21:08.642Z,88.55
2023-01-05T07:22:08.420Z,88.07
2023-01-05T07:23:08.482Z,88.07
2023-01-05T07:24:08.476Z,88.07
2023-01-05T07:25:08.510Z,88.02
2023-01-05T07:27:09.987Z,88.40
2023-01-05T07:28:08.885Z,88.45
2023-01-05T07:29:08.622Z,87.88
2023-01-05T07:30:08.644Z,88.35
2023-01-05T07:31:08.834Z,88.65
2023-01-05T07:32:08.700Z,88.45
2023-01-05T07:33:08.725Z,88.17
2023-01-05T07:35:08.785Z,88.07
2023-01-05T07:36:08.866Z,88.11
2023-01-05T07:37:08.830Z,87.88
2023-01-05T07:38:08.899Z,88.21
2023-01-05T07:39:08.886Z,87.92
2023-01-05T07:40:08.913Z,87.88
2023-01-05T07:41:08.961Z,88.02
2023-01-05T07:42:09.279Z,88.11
2023-01-05T07:43:09.032Z,88.11
2023-01-05T07:44:09.027Z,87.59
2023-01-05T07:45:09.056Z,87.44
2023-01-05T07:46:09.245Z,88.21
2023-01-05T07:47:09.112Z,87.63
2023-01-05T07:48:09.503Z,88.17
2023-01-05T07:49:09.828Z,88.31
2023-01-05T07:50:09.195Z,88.11
2023-01-05T07:51:09.237Z,87.88
2023-01-05T07:52:09.299Z,88.11
2023-01-05T07:53:09.271Z,88.35
2023-01-05T07:54:09.331Z,88.21
2023-01-05T07:55:09.474Z,88.40
2023-01-05T07:56:09.603Z,88.02
2023-01-05T07:57:09.511Z,88.07
2023-01-05T07:58:09.414Z,87.68
2023-01-05T08:02:10.029Z,88.40
2023-01-05T08:04:09.633Z,87.68
2023-01-05T08:05:09.611Z,87.44
2023-01-05T08:06:09.749Z,87.63
2023-01-05T08:07:09.695Z,87.82
2023-01-05T08:08:09.691Z,88.21
2023-01-05T08:09:10.020Z,87.78
2023-01-05T08:10:09.789Z,87.40
2023-01-05T08:11:09.782Z,88.17
2023-01-05T08:12:09.811Z,87.78
2023-01-05T08:13:09.832Z,87.54
2023-01-05T08:14:09.905Z,87.82
2023-01-05T08:15:09.900Z,87.92
2023-01-05T08:16:10.247Z,87.88
2023-01-05T08:17:09.947Z,87.88
2023-01-05T08:18:10.054Z,87.78
2023-01-05T08:19:11.640Z,88.17
2023-01-05T08:21:10.074Z,87.73
2023-01-05T08:22:10.097Z,87.68
2023-01-05T08:23:10.425Z,87.44
2023-01-05T08:24:10.153Z,88.17
2023-01-05T08:25:10.162Z,87.35
2023-01-05T08:26:10.212Z,88.11
2023-01-05T08:27:10.503Z,88.21
2023-01-05T08:28:10.249Z,87.92
2023-01-05T08:29:10.586Z,87.98
2023-01-05T08:30:10.306Z,88.02
2023-01-05T08:32:10.403Z,87.68
2023-01-05T08:33:10.432Z,87.63
2023-01-05T08:34:10.428Z,87.54
2023-01-05T08:35:10.742Z,88.11
2023-01-05T08:36:10.477Z,87.63
2023-01-05T08:37:10.498Z,87.78
2023-01-05T08:38:10.524Z,87.44
2023-01-05T08:39:10.578Z,87.25
2023-01-05T08:40:10.691Z,88.02
2023-01-05T08:41:10.915Z,87.73
2023-01-05T08:42:10.643Z,87.82
2023-01-05T08:43:10.671Z,87.25
2023-01-05T08:44:10.726Z,87.30
2023-01-05T08:45:10.771Z,87.92
2023-01-05T08:46:10.764Z,87.92
2023-01-05T08:47:10.773Z,88.02
2023-01-05T08:48:11.108Z,87.92
2023-01-05T08:50:10.876Z,87.54
2023-01-05T08:51:10.895Z,87.73
2023-01-05T08:52:10.913Z,87.92
2023-01-05T08:53:10.946Z,87.88
2023-01-05T08:54:10.968Z,87.25
2023-01-05T08:55:11.313Z,87.40
2023-01-05T08:56:11.019Z,87.25
2023-01-05T08:57:11.070Z,87.25
2023-01-05T08:58:11.149Z,87.73
2023-01-05T08:59:11.099Z,87.44
2023-01-05T09:00:11.131Z,87.11
2023-01-05T09:01:11.303Z,87.54
2023-01-05T09:02:11.603Z,87.54
2023-01-05T09:03:11.271Z,87.82
2023-01-05T09:04:11.259Z,87.92
2023-01-05T09:05:11.355Z,87.54
2023-01-05T09:06:11.406Z,87.25
2023-01-05T09:07:11.324Z,87.15
2023-01-05T09:08:11.355Z,87.25
2023-01-05T09:09:11.641Z,87.54
2023-01-05T09:10:11.496Z,87.54
2023-01-05T09:11:11.438Z,87.25
2023-01-05T09:12:11.465Z,86.87
2023-01-05T09:13:11.509Z,86.87
2023-01-05T09:14:11.522Z,86.87
2023-01-05T09:15:11.586Z,87.05
2023-01-05T09:16:12.047Z,86.87
2023-01-05T09:17:11.681Z,87.63
2023-01-05T09:18:11.633Z,86.96
2023-01-05T09:19:11.660Z,87.15
2023-01-05T09:20:11.693Z,87.25
2023-01-05T09:21:11.717Z,86.77
2023-01-05T09:22:11.764Z,86.87
2023-01-05T09:23:11.776Z,87.05
2023-01-05T09:24:11.797Z,86.87
2023-01-05T09:25:11.823Z,86.87
2023-01-05T09:26:11.856Z,87.05
2023-01-05T09:27:11.878Z,87.15
2023-01-05T09:28:11.913Z,87.35
2023-01-05T09:29:12.365Z,86.96
2023-01-05T09:30:11.967Z,87.54
2023-01-05T09:31:12.104Z,87.54
2023-01-05T09:32:12.117Z,86.87
2023-01-05T09:33:12.055Z,86.29
2023-01-05T09:34:12.072Z,87.05
2023-01-05T09:35:12.114Z,86.77
2023-01-05T09:36:12.437Z,87.15
2023-01-05T09:37:12.263Z,87.44
2023-01-05T09:38:12.311Z,87.05
2023-01-05T09:39:12.217Z,86.87
2023-01-05T09:40:12.243Z,87.05
2023-01-05T09:42:12.595Z,86.68
2023-01-05T09:43:12.342Z,86.29
2023-01-05T09:44:12.358Z,86.29
2023-01-05T09:45:12.480Z,86.48
2023-01-05T09:46:12.471Z,86.48
2023-01-05T09:47:12.432Z,86.48
2023-01-05T09:48:12.711Z,87.15
2023-01-05T09:49:12.505Z,87.15
2023-01-05T09:50:12.514Z,86.68
2023-01-05T09:51:12.550Z,86.48
2023-01-05T09:52:12.593Z,86.96
2023-01-05T09:53:12.611Z,86.48
2023-01-05T09:54:12.998Z,86.48
2023-01-05T09:55:12.665Z,86.96
2023-01-05T09:56:13.761Z,86.96
2023-01-05T09:57:12.716Z,87.25
2023-01-05T09:58:12.832Z,86.38
2023-01-05T10:02:12.900Z,86.29
2023-01-05T10:04:13.044Z,86.48
2023-01-05T10:05:13.095Z,86.58
2023-01-05T10:06:12.967Z,86.68
2023-01-05T10:07:12.997Z,86.48
2023-01-05T10:08:13.060Z,86.48
2023-01-05T10:09:13.046Z,86.19
2023-01-05T10:10:13.199Z,86.19
2023-01-05T10:11:13.679Z,86.19
2023-01-05T10:12:14.118Z,86.19
2023-01-05T10:13:13.419Z,86.10
2023-01-05T10:14:13.214Z,86.00
2023-01-05T10:15:13.219Z,86.19
2023-01-05T10:16:13.292Z,86.10
2023-01-05T10:17:40.041Z,86.29
2023-01-05T10:18:13.357Z,85.62
2023-01-05T10:19:13.330Z,85.91
2023-01-05T10:20:13.744Z,86.00
2023-01-05T10:21:13.387Z,86.19
2023-01-05T10:22:13.409Z,86.29
2023-01-05T10:23:13.447Z,85.62
2023-01-05T10:24:13.488Z,85.71
2023-01-05T10:25:13.499Z,85.71
2023-01-05T10:26:13.649Z,85.42
2023-01-05T10:27:24.807Z,85.71
2023-01-05T10:28:13.579Z,85.91
2023-01-05T10:29:13.603Z,85.71
2023-01-05T10:30:13.642Z,85.81
2023-01-05T10:31:13.707Z,85.91
2023-01-05T10:32:13.697Z,85.91
2023-01-05T10:33:38.917Z,85.62
2023-01-05T10:34:16.416Z,86.10
2023-01-05T10:35:34.022Z,85.91
2023-01-05T10:36:16.489Z,85.81
2023-01-05T10:37:13.837Z,85.91
2023-01-05T10:38:13.895Z,85.52
2023-01-05T10:39:13.890Z,86.29
2023-01-05T10:40:13.919Z,85.71
2023-01-05T10:41:13.949Z,86.00
2023-01-05T10:42:14.085Z,85.75
2023-01-05T10:43:14.005Z,86.19
2023-01-05T10:44:14.027Z,85.81
2023-01-05T10:45:14.058Z,85.81
2023-01-05T10:46:48.701Z,86.00
2023-01-05T10:49:14.183Z,85.95
2023-01-05T10:50:14.214Z,85.47
2023-01-05T10:51:14.245Z,84.80
2023-01-05T10:52:14.558Z,85.37
2023-01-05T10:53:14.384Z,86.05
2023-01-05T10:54:14.343Z,86.05
2023-01-05T10:55:14.344Z,84.60
2023-01-05T10:56:14.373Z,85.37
2023-01-05T10:57:14.396Z,84.99
2023-01-05T10:58:14.538Z,85.18
2023-01-05T10:59:14.931Z,85.75
2023-01-05T11:00:14.484Z,85.75
2023-01-05T11:01:14.689Z,85.37
2023-01-05T11:02:14.650Z,85.57
2023-01-05T11:03:14.560Z,85.08
2023-01-05T11:04:31.761Z,85.08
2023-01-05T11:05:14.709Z,85.28
2023-01-05T11:06:15.015Z,84.99
2023-01-05T11:07:14.673Z,84.89
2023-01-05T11:08:14.706Z,85.18
2023-01-05T11:09:18.861Z,84.99
2023-01-05T11:10:14.776Z,85.08
2023-01-05T11:11:14.799Z,85.08
2023-01-05T11:12:14.817Z,85.37
2023-01-05T11:13:15.122Z,84.99
2023-01-05T11:14:14.994Z,85.08
2023-01-05T11:15:14.912Z,85.08
2023-01-05T11:16:15.010Z,85.08
2023-01-05T11:17:14.951Z,85.08
2023-01-05T11:18:14.987Z,85.08
2023-01-05T11:19:15.013Z,85.37
2023-01-05T11:20:15.384Z,84.89
2023-01-05T11:21:15.174Z,85.18
2023-01-05T11:22:15.106Z,85.28
2023-01-05T11:23:15.134Z,85.75
2023-01-05T11:24:15.158Z,85.28
2023-01-05T11:25:15.179Z,84.70
2023-01-05T11:26:15.218Z,85.08
2023-01-05T11:27:15.236Z,85.18
2023-01-05T11:28:15.576Z,85.18
2023-01-05T11:29:16.045Z,85.28
2023-01-05T11:30:15.534Z,85.28
2023-01-05T11:31:15.449Z,84.80
2023-01-05T11:32:15.387Z,84.89
2023-01-05T11:33:21.405Z,84.89
2023-01-05T11:34:15.434Z,85.18
2023-01-05T11:35:15.467Z,85.28
2023-01-05T11:36:15.512Z,85.37
2023-01-05T11:37:15.532Z,85.37
2023-01-05T11:38:15.557Z,85.18
2023-01-05T11:40:15.612Z,85.08
2023-01-05T11:42:20.263Z,85.18
2023-01-05T11:43:15.697Z,84.89
2023-01-05T11:44:15.718Z,84.89
2023-01-05T11:46:15.981Z,84.89
2023-01-05T11:47:15.818Z,84.60
2023-01-05T11:48:15.841Z,84.80
2023-01-05T11:49:15.858Z,85.37
2023-01-05T11:50:15.959Z,84.99
2023-01-05T11:51:15.917Z,84.80
2023-01-05T11:53:16.274Z,84.99
2023-01-05T11:54:15.998Z,84.80
2023-01-05T11:55:16.029Z,84.99
2023-01-05T11:56:16.055Z,84.80
2023-01-05T11:57:16.097Z,85.08
2023-01-05T11:58:16.137Z,84.70
2023-01-05T11:59:16.397Z,84.89
2023-01-05T12:00:16.230Z,84.41
2023-01-05T12:01:16.301Z,85.18
2023-01-05T12:03:16.424Z,84.99
2023-01-05T12:04:16.376Z,84.99
2023-01-05T12:05:16.574Z,84.89
2023-01-05T12:06:16.333Z,85.08
2023-01-05T12:07:16.381Z,85.08
2023-01-05T12:08:16.396Z,85.37
2023-01-05T12:09:16.463Z,84.70
2023-01-05T12:10:16.451Z,84.99
2023-01-05T12:12:16.532Z,84.31
2023-01-05T12:13:16.557Z,84.41
2023-01-05T12:14:16.568Z,84.03
2023-01-05T12:15:16.595Z,84.31
2023-01-05T12:16:16.713Z,84.22
2023-01-05T12:17:16.680Z,84.12
2023-01-05T12:18:16.996Z,84.99
2023-01-05T12:19:16.847Z,84.80
2023-01-05T12:20:16.739Z,84.80
2023-01-05T12:21:16.759Z,84.80
2023-01-05T12:22:16.806Z,84.99
2023-01-05T12:23:16.830Z,84.41
2023-01-05T12:24:16.875Z,84.22
2023-01-05T12:25:16.875Z,84.80
2023-01-05T12:26:16.923Z,84.41
2023-01-05T12:27:16.962Z,84.89
2023-01-05T12:28:29.577Z,84.22
2023-01-05T12:34:17.158Z,83.93
2023-01-05T12:35:17.279Z,84.12
2023-01-05T12:36:17.197Z,84.41
2023-01-05T12:37:17.229Z,83.84
2023-01-05T12:38:17.284Z,83.74
2023-01-05T12:40:17.309Z,84.22
2023-01-05T12:41:17.334Z,84.41
2023-01-05T12:42:17.367Z,84.12
2023-01-05T12:43:17.640Z,83.93
2023-01-05T12:44:17.467Z,83.74
2023-01-05T12:45:17.452Z,84.41
2023-01-05T12:46:17.507Z,84.31
2023-01-05T12:47:17.511Z,84.03
2023-01-05T12:48:17.589Z,83.84
2023-01-05T12:49:17.818Z,83.74
2023-01-05T12:50:18.196Z,84.41
2023-01-05T12:51:17.735Z,84.03
2023-01-05T12:53:17.683Z,83.93
2023-01-05T12:54:17.700Z,83.93
2023-01-05T12:55:18.037Z,84.22
2023-01-05T12:56:17.782Z,84.41
2023-01-05T12:58:17.810Z,83.93
2023-01-05T12:59:17.848Z,83.93
2023-01-05T13:00:17.894Z,83.97
2023-01-05T13:01:18.053Z,83.93
2023-01-05T13:02:18.029Z,83.93
2023-01-05T13:03:17.969Z,84.41
2023-01-05T13:04:18.109Z,83.84
2023-01-05T13:05:18.021Z,83.54
2023-01-05T13:06:18.050Z,83.84
2023-01-05T13:07:18.198Z,84.41
2023-01-05T13:08:18.406Z,84.26
2023-01-05T13:09:18.141Z,84.22
2023-01-05T13:10:18.160Z,84.22
2023-01-05T13:11:18.203Z,83.74
2023-01-05T13:12:18.208Z,84.36
2023-01-05T13:13:18.251Z,84.41
2023-01-05T13:14:18.288Z,84.36
2023-01-05T13:15:18.546Z,83.97
2023-01-05T13:16:18.368Z,84.22
2023-01-05T13:17:18.360Z,84.45
2023-01-05T13:18:18.511Z,84.26
2023-01-05T13:19:18.420Z,83.64
2023-01-05T13:20:18.439Z,83.84
2023-01-05T13:21:18.484Z,83.93
2023-01-05T13:22:18.842Z,84.31
2023-01-05T13:23:18.642Z,84.55
2023-01-05T13:24:18.556Z,84.70
2023-01-05T13:25:18.592Z,84.26
2023-01-05T13:26:18.711Z,84.26
2023-01-05T13:27:18.639Z,84.45
2023-01-05T13:28:18.672Z,84.55
2023-01-05T13:29:18.696Z,84.45
2023-01-05T13:30:18.720Z,84.55
2023-01-05T13:31:18.904Z,84.17
2023-01-05T13:32:18.815Z,84.26
2023-01-05T13:33:18.820Z,84.26
2023-01-05T13:34:18.842Z,83.87
2023-01-05T13:35:19.159Z,83.69
2023-01-05T13:36:18.906Z,83.59
2023-01-05T13:37:19.029Z,83.87
2023-01-05T13:38:18.972Z,83.59
2023-01-05T13:39:19.184Z,83.78
2023-01-05T13:40:19.010Z,83.93
2023-01-05T13:41:19.288Z,84.07
2023-01-05T13:42:19.232Z,83.87
2023-01-05T13:43:19.129Z,84.26
2023-01-05T13:44:19.150Z,84.07
2023-01-05T13:45:19.155Z,84.41
2023-01-05T13:46:19.252Z,84.03
2023-01-05T13:47:27.076Z,84.55
2023-01-05T13:48:25.283Z,84.03
2023-01-05T13:49:19.270Z,84.07
2023-01-05T13:50:19.330Z,83.64
2023-01-05T13:51:19.329Z,84.41
2023-01-05T13:52:19.367Z,84.22
2023-01-05T13:53:19.384Z,84.41
2023-01-05T13:54:19.409Z,84.17
2023-01-05T13:55:25.706Z,84.22
2023-01-05T13:56:19.597Z,83.97
2023-01-05T13:57:19.504Z,84.07
2023-01-05T13:58:19.528Z,84.03
2023-01-05T13:59:29.033Z,84.22
2023-01-05T14:00:19.592Z,85.03
2023-01-05T14:02:19.705Z,84.84